createdAt,value
2022-10-13T00:01:14.461Z,34.95
2022-10-13T00:03:42.846Z,34.08
2022-10-13T00:06:17.643Z,34.95
2022-10-13T00:08:45.615Z,36.72
2022-10-13T00:11:18.869Z,37.00
2022-10-13T00:13:46.614Z,37.05
2022-10-13T00:16:15.348Z,29.48
2022-10-13T00:18:42.909Z,30.15
2022-10-13T00:21:18.392Z,32.05
2022-10-13T00:23:46.992Z,32.67
2022-10-13T00:26:17.549Z,37.33
2022-10-13T00:28:48.447Z,28.92
2022-10-13T00:31:29.942Z,28.35
2022-10-13T00:33:58.455Z,32.53
2022-10-13T00:36:25.926Z,41.42
2022-10-13T00:38:53.515Z,33.05
2022-10-13T00:41:21.410Z,34.22
2022-10-13T00:43:54.597Z,30.95
2022-10-13T00:46:22.346Z,30.58
2022-10-13T00:48:55.879Z,33.60
2022-10-13T00:51:24.752Z,31.17
2022-10-13T00:53:53.029Z,28.87
2022-10-13T00:56:24.343Z,29.87
2022-10-13T00:58:51.987Z,30.52
2022-10-13T01:01:19.163Z,30.48
2022-10-13T01:03:46.145Z,30.67
2022-10-13T01:06:14.337Z,30.35
2022-10-13T01:08:41.544Z,35.03
2022-10-13T01:11:33.557Z,32.53
2022-10-13T01:14:15.765Z,31.87
2022-10-13T01:16:55.946Z,31.30
2022-10-13T01:20:05.822Z,27.90
2022-10-13T01:22:45.581Z,28.05
2022-10-13T01:25:20.413Z,29.63
2022-10-13T01:28:14.870Z,31.45
2022-10-13T01:31:08.496Z,25.12
2022-10-13T01:33:39.165Z,25.83
2022-10-13T01:36:14.604Z,26.37
2022-10-13T01:39:17.585Z,26.10
2022-10-13T01:41:50.195Z,26.85
2022-10-13T01:44:26.384Z,28.67
2022-10-13T01:46:54.065Z,24.67
2022-10-13T01:49:24.709Z,27.02
2022-10-13T01:51:52.067Z,30.73
2022-10-13T01:54:19.351Z,29.45
2022-10-13T01:56:54.082Z,27.30
2022-10-13T01:59:23.209Z,31.25
2022-10-13T02:02:38.325Z,30.80
2022-10-13T02:05:35.127Z,30.70
2022-10-13T02:08:08.037Z,29.58
2022-10-13T02:10:42.917Z,32.60
2022-10-13T02:13:11.577Z,33.88
2022-10-13T02:15:46.368Z,27.13
2022-10-13T02:18:15.391Z,32.30
2022-10-13T02:20:44.400Z,30.83
2022-10-13T02:23:14.782Z,28.35
2022-10-13T02:25:42.672Z,27.00
2022-10-13T02:28:11.214Z,25.33
2022-10-13T02:30:43.071Z,24.85
2022-10-13T02:33:11.260Z,31.08
2022-10-13T02:35:39.130Z,30.88
2022-10-13T02:38:06.619Z,36.15
2022-10-13T02:40:34.132Z,31.70
2022-10-13T02:43:01.273Z,30.85
2022-10-13T02:45:28.293Z,35.17
2022-10-13T02:47:56.282Z,31.90
2022-10-13T02:50:23.289Z,31.77
2022-10-13T02:52:50.677Z,28.10
2022-10-13T02:55:18.049Z,35.22
2022-10-13T02:57:46.018Z,28.87
2022-10-13T03:00:16.842Z,31.23
2022-10-13T03:02:44.441Z,30.65
2022-10-13T03:05:11.583Z,28.50
2022-10-13T03:07:38.569Z,29.00
2022-10-13T03:10:06.590Z,29.23
2022-10-13T03:12:33.780Z,31.02
2022-10-13T03:15:00.802Z,26.45
2022-10-13T03:17:28.220Z,27.87
2022-10-13T03:19:55.189Z,28.52
2022-10-13T03:22:22.552Z,32.30
2022-10-13T03:24:52.213Z,28.52
2022-10-13T03:27:19.201Z,26.75
2022-10-13T03:29:46.292Z,24.45
2022-10-13T03:32:13.857Z,29.37
2022-10-13T03:34:40.854Z,31.05
2022-10-13T03:37:07.912Z,25.12
2022-10-13T03:39:39.318Z,26.75
2022-10-13T03:42:07.479Z,24.05
2022-10-13T03:44:34.495Z,22.85
2022-10-13T03:47:01.811Z,26.17
2022-10-13T03:49:28.789Z,37.55
2022-10-13T03:51:55.808Z,24.17
2022-10-13T03:54:23.115Z,24.52
2022-10-13T03:56:53.246Z,26.40
2022-10-13T03:59:20.214Z,31.08
2022-10-13T04:01:47.555Z,31.67
2022-10-13T04:04:14.929Z,23.67
2022-10-13T04:06:42.595Z,31.17
2022-10-13T04:09:09.608Z,28.10
2022-10-13T04:11:36.930Z,26.60
2022-10-13T04:14:04.141Z,22.98
2022-10-13T04:16:31.801Z,23.80
2022-10-13T04:19:03.894Z,23.90
2022-10-13T04:21:33.436Z,34.58
2022-10-13T04:24:01.497Z,22.73
2022-10-13T04:26:31.205Z,24.87
2022-10-13T04:28:58.939Z,26.00
2022-10-13T04:31:28.901Z,26.08
2022-10-13T04:33:55.963Z,24.37
2022-10-13T04:36:23.720Z,20.12
2022-10-13T04:38:51.842Z,22.90
2022-10-13T04:41:19.609Z,31.12
2022-10-13T04:43:50.537Z,17.58
2022-10-13T04:46:23.541Z,19.98
2022-10-13T04:48:51.857Z,21.45
2022-10-13T04:51:22.480Z,18.85
2022-10-13T04:53:54.659Z,23.38
2022-10-13T04:56:21.922Z,18.83
2022-10-13T04:58:48.981Z,23.58
2022-10-13T05:01:21.853Z,20.10
2022-10-13T05:03:54.441Z,26.65
2022-10-13T05:06:27.546Z,24.12
2022-10-13T05:08:56.310Z,26.80
2022-10-13T05:11:24.366Z,23.02
2022-10-13T05:13:51.461Z,27.33
2022-10-13T05:16:20.999Z,19.50
2022-10-13T05:18:49.654Z,23.67
2022-10-13T05:21:19.293Z,20.45
2022-10-13T05:23:46.862Z,15.98
2022-10-13T05:26:16.023Z,21.33
2022-10-13T05:28:43.867Z,19.73
2022-10-13T05:31:22.160Z,17.90
2022-10-13T05:33:50.725Z,18.62
2022-10-13T05:36:25.479Z,18.35
2022-10-13T05:42:23.640Z,27.75
2022-10-13T05:44:51.259Z,33.28
2022-10-13T05:47:18.455Z,31.55
2022-10-13T05:53:03.025Z,35.85
2022-10-13T05:55:31.609Z,24.90
2022-10-13T05:58:17.169Z,25.08
2022-10-13T06:06:42.943Z,27.98
2022-10-13T06:09:10.311Z,45.65
2022-10-13T06:11:37.743Z,33.75
2022-10-13T06:14:06.054Z,19.08
2022-10-13T06:16:36.288Z,25.85
2022-10-13T06:19:05.479Z,22.17
2022-10-13T06:21:36.804Z,26.90
2022-10-13T06:24:04.369Z,39.10
2022-10-13T06:26:31.354Z,24.02
2022-10-13T06:31:45.462Z,25.70
2022-10-13T06:34:13.018Z,34.47
2022-10-13T06:36:43.682Z,20.15
2022-10-13T06:39:11.913Z,19.15
2022-10-13T06:41:39.213Z,20.23
2022-10-13T06:44:06.293Z,18.80
2022-10-13T06:46:33.488Z,14.02
2022-10-13T06:49:00.837Z,13.35
2022-10-13T06:51:28.817Z,12.45
2022-10-13T06:53:57.134Z,16.50
2022-10-13T06:56:25.827Z,14.60
2022-10-13T06:58:53.020Z,14.52
2022-10-13T07:01:20.139Z,13.55
2022-10-13T07:03:51.303Z,12.30
2022-10-13T07:06:20.135Z,13.45
2022-10-13T07:08:47.450Z,10.25
2022-10-13T07:11:16.591Z,13.25
2022-10-13T07:13:47.972Z,10.38
2022-10-13T07:16:17.463Z,11.40
2022-10-13T07:18:44.508Z,10.82
2022-10-13T07:21:11.547Z,11.20
2022-10-13T07:23:38.840Z,13.15
2022-10-13T07:26:11.120Z,10.48
2022-10-13T07:28:38.817Z,11.93
2022-10-13T07:31:11.822Z,14.70
2022-10-13T07:33:39.475Z,15.95
2022-10-13T07:36:08.047Z,10.52
2022-10-13T07:38:35.056Z,11.25
2022-10-13T07:41:03.905Z,14.13
2022-10-13T07:43:31.387Z,13.45
2022-10-13T07:46:00.497Z,8.77
2022-10-13T07:48:28.529Z,10.15
2022-10-13T07:50:57.348Z,10.23
2022-10-13T07:53:24.413Z,13.32
2022-10-13T07:55:51.737Z,11.68
2022-10-13T07:58:18.735Z,18.55
2022-10-13T08:00:45.701Z,11.23
2022-10-13T08:03:12.961Z,13.00
2022-10-13T08:05:40.480Z,15.90
2022-10-13T08:08:07.518Z,16.40
2022-10-13T08:10:34.817Z,12.65
2022-10-13T08:13:01.807Z,13.23
2022-10-13T08:15:28.884Z,17.80
2022-10-13T08:17:56.221Z,12.48
2022-10-13T08:20:28.835Z,11.32
2022-10-13T08:23:03.567Z,22.33
2022-10-13T08:25:30.935Z,17.75
2022-10-13T08:28:00.476Z,15.50
2022-10-13T08:30:28.083Z,12.55
2022-10-13T08:32:55.186Z,11.95
2022-10-13T08:35:22.234Z,18.12
2022-10-13T08:37:49.560Z,16.42
2022-10-13T08:40:19.950Z,12.05
2022-10-13T08:42:47.138Z,10.18
2022-10-13T08:48:18.227Z,12.07
2022-10-13T08:50:49.008Z,14.73
2022-10-13T08:53:23.332Z,12.43
2022-10-13T08:56:10.512Z,14.15
2022-10-13T08:58:42.877Z,15.63
2022-10-13T09:01:20.438Z,10.02
2022-10-13T09:03:55.242Z,13.82
2022-10-13T09:06:41.997Z,11.98
2022-10-13T09:09:15.444Z,11.43
2022-10-13T09:11:46.334Z,9.20
2022-10-13T09:14:24.540Z,17.02
2022-10-13T09:16:55.721Z,15.43
2022-10-13T09:19:34.037Z,15.13
2022-10-13T09:22:14.592Z,19.23
2022-10-13T09:24:41.645Z,15.45
2022-10-13T09:27:15.212Z,15.50
2022-10-13T09:29:43.568Z,16.98
2022-10-13T09:32:19.674Z,16.12
2022-10-13T09:34:47.910Z,20.12
2022-10-13T09:37:25.542Z,22.92
2022-10-13T09:40:13.491Z,19.80
2022-10-13T09:42:40.938Z,17.35
2022-10-13T09:45:17.497Z,18.05
2022-10-13T09:47:53.791Z,13.10
2022-10-13T09:50:30.141Z,15.93
2022-10-13T09:53:34.450Z,12.27
2022-10-13T09:56:09.351Z,16.60
2022-10-13T09:58:43.092Z,19.12
2022-10-13T10:01:19.008Z,14.52
2022-10-13T10:03:46.660Z,14.10
2022-10-13T10:06:15.981Z,16.65
2022-10-13T10:09:02.629Z,17.67
2022-10-13T10:11:39.286Z,12.95
2022-10-13T10:14:26.465Z,19.50
2022-10-13T10:17:28.516Z,22.17
2022-10-13T10:20:17.212Z,16.52
2022-10-13T10:22:48.222Z,16.23
2022-10-13T10:25:47.484Z,21.42
2022-10-13T10:29:07.850Z,24.17
2022-10-13T10:32:15.371Z,15.75
2022-10-13T10:34:50.889Z,22.77
2022-10-13T10:37:40.827Z,17.55
2022-10-13T10:40:46.171Z,16.00
2022-10-13T10:43:31.893Z,19.05
2022-10-13T10:45:59.949Z,16.08
2022-10-13T10:48:38.293Z,19.23
2022-10-13T10:51:09.095Z,24.98
2022-10-13T10:53:39.894Z,16.27
2022-10-13T10:56:27.456Z,20.12
2022-10-13T10:59:02.028Z,17.25
2022-10-13T11:01:33.715Z,20.12
2022-10-13T11:04:28.752Z,24.95
2022-10-13T11:06:56.023Z,19.60
2022-10-13T11:09:41.140Z,21.40
2022-10-13T11:12:20.803Z,18.95
2022-10-13T11:15:08.344Z,19.75
2022-10-13T11:17:38.003Z,16.60
2022-10-13T11:20:17.941Z,20.35
2022-10-13T11:23:00.589Z,25.42
2022-10-13T11:25:47.598Z,19.80
2022-10-13T11:28:21.348Z,17.55
2022-10-13T11:30:50.748Z,17.58
2022-10-13T11:33:39.797Z,18.12
2022-10-13T11:36:31.802Z,17.12
2022-10-13T11:39:17.625Z,16.30
2022-10-13T11:41:58.591Z,18.40
2022-10-13T11:44:34.533Z,13.18
2022-10-13T11:47:40.429Z,19.50
2022-10-13T11:50:21.291Z,13.50
2022-10-13T11:52:58.086Z,14.38
2022-10-13T11:55:37.135Z,25.52
2022-10-13T11:58:16.078Z,14.90
2022-10-13T12:01:13.776Z,16.75
2022-10-13T12:03:43.879Z,18.20
2022-10-13T12:06:20.645Z,25.23
2022-10-13T12:08:49.459Z,14.20
2022-10-13T12:11:39.614Z,15.70
2022-10-13T12:14:16.794Z,18.33
2022-10-13T12:19:29.323Z,22.30
2022-10-13T12:21:59.048Z,19.77
2022-10-13T12:24:28.998Z,19.02
2022-10-13T12:26:57.359Z,14.13
2022-10-13T12:29:27.484Z,18.40
2022-10-13T12:31:55.316Z,15.52
2022-10-13T12:34:32.813Z,17.87
2022-10-13T12:37:03.161Z,19.40
2022-10-13T12:39:32.303Z,17.62
2022-10-13T12:42:01.239Z,13.95
2022-10-13T12:44:30.433Z,15.25
2022-10-13T12:47:02.269Z,18.75
2022-10-13T12:49:32.022Z,12.82
2022-10-13T12:52:24.123Z,17.60
2022-10-13T12:54:55.973Z,16.48
2022-10-13T12:57:36.189Z,14.82
2022-10-13T13:00:06.094Z,15.88
2022-10-13T13:02:33.733Z,15.52
2022-10-13T13:05:00.713Z,21.15
2022-10-13T13:07:37.058Z,16.23
2022-10-13T13:10:20.460Z,15.57
2022-10-13T13:12:49.636Z,18.40
2022-10-13T13:15:26.002Z,14.20
2022-10-13T13:17:58.719Z,16.67
2022-10-13T13:20:31.774Z,15.20
2022-10-13T13:22:59.595Z,29.12
2022-10-13T13:25:27.052Z,17.23
2022-10-13T13:27:54.262Z,16.48
2022-10-13T13:30:23.443Z,20.10
2022-10-13T13:32:51.450Z,14.63
2022-10-13T13:35:18.951Z,16.62
2022-10-13T13:37:50.400Z,20.08
2022-10-13T13:40:23.063Z,13.82
2022-10-13T13:42:50.619Z,11.47
2022-10-13T13:45:20.937Z,11.77
2022-10-13T13:47:49.872Z,13.93
2022-10-13T13:50:25.941Z,11.20
2022-10-13T13:52:56.601Z,15.45
2022-10-13T13:55:24.351Z,16.65
2022-10-13T13:57:51.370Z,46.45
2022-10-13T14:00:18.993Z,23.42
2022-10-13T14:02:50.536Z,19.92
2022-10-13T14:05:17.713Z,30.85
2022-10-13T14:07:47.600Z,17.37
2022-10-13T14:10:14.912Z,23.12
2022-10-13T14:12:41.894Z,26.33
2022-10-13T14:15:09.481Z,11.73
2022-10-13T14:17:36.883Z,14.70
2022-10-13T14:20:04.523Z,15.82
2022-10-13T14:22:33.218Z,14.00
2022-10-13T14:25:00.489Z,14.05
2022-10-13T14:27:27.505Z,23.27
2022-10-13T14:29:55.853Z,13.30
2022-10-13T14:32:23.405Z,23.60
2022-10-13T14:34:50.535Z,16.75
2022-10-13T14:37:22.158Z,20.17
2022-10-13T14:39:50.714Z,17.57
2022-10-13T14:42:17.714Z,16.87
2022-10-13T14:44:45.187Z,11.52
2022-10-13T14:47:12.466Z,18.70
2022-10-13T14:49:39.526Z,28.33
2022-10-13T14:52:06.759Z,15.82
2022-10-13T14:54:34.107Z,17.58
2022-10-13T14:57:05.221Z,15.80
2022-10-13T14:59:32.294Z,18.77
2022-10-13T15:01:59.642Z,11.95
2022-10-13T15:04:26.671Z,18.95
2022-10-13T15:06:53.659Z,20.98
2022-10-13T15:09:25.646Z,29.65
2022-10-13T15:12:00.714Z,15.98
2022-10-13T15:14:29.180Z,17.95
2022-10-13T15:16:56.793Z,25.85
2022-10-13T15:19:25.198Z,23.83
2022-10-13T15:21:53.218Z,18.27
2022-10-13T15:24:20.302Z,17.30
2022-10-13T15:26:52.184Z,17.23
2022-10-13T15:29:19.470Z,21.83
2022-10-13T15:31:46.631Z,17.40
2022-10-13T15:34:13.704Z,14.27
2022-10-13T15:36:40.966Z,17.73
2022-10-13T15:39:10.757Z,21.20
2022-10-13T15:41:37.737Z,21.62
2022-10-13T15:44:05.099Z,18.23
2022-10-13T15:46:32.075Z,23.33
2022-10-13T15:48:59.975Z,22.90
2022-10-13T15:51:27.338Z,18.85
2022-10-13T15:53:55.293Z,27.87
2022-10-13T15:56:22.310Z,16.15
2022-10-13T15:58:49.716Z,24.48
2022-10-13T16:01:16.899Z,25.02
2022-10-13T16:03:44.274Z,19.08
2022-10-13T16:06:12.635Z,23.35
2022-10-13T16:08:40.878Z,32.28
2022-10-13T16:11:13.643Z,25.88
2022-10-13T16:13:41.167Z,30.05
2022-10-13T16:16:08.639Z,30.10
2022-10-13T16:18:37.381Z,23.67
2022-10-13T16:21:22.952Z,28.98
2022-10-13T16:23:50.462Z,30.48
2022-10-13T16:26:18.211Z,33.60
2022-10-13T16:28:46.069Z,33.05
2022-10-13T16:31:15.604Z,38.97
2022-10-13T16:33:44.193Z,30.23
2022-10-13T16:36:16.897Z,32.42
2022-10-13T16:38:44.832Z,33.13
2022-10-13T16:41:16.911Z,40.95
2022-10-13T16:43:45.308Z,61.65
2022-10-13T16:46:13.790Z,68.68
2022-10-13T16:48:41.506Z,62.67
2022-10-13T16:51:12.319Z,62.28
2022-10-13T16:53:39.384Z,43.42
2022-10-13T16:56:07.495Z,26.87
2022-10-13T16:58:35.307Z,28.87
2022-10-13T17:01:08.812Z,28.27
2022-10-13T17:03:39.502Z,26.97
2022-10-13T17:06:07.034Z,28.60
2022-10-13T17:08:34.181Z,30.20
2022-10-13T17:11:02.534Z,33.58
2022-10-13T17:13:30.426Z,34.63
2022-10-13T17:15:57.473Z,33.22
2022-10-13T17:18:26.233Z,39.38
2022-10-13T17:20:55.381Z,45.50
2022-10-13T17:23:25.972Z,47.47
2022-10-13T17:25:54.315Z,42.83
2022-10-13T17:28:21.820Z,35.75
2022-10-13T17:30:58.077Z,39.40
2022-10-13T17:33:26.823Z,42.62
2022-10-13T17:36:02.236Z,47.15
2022-10-13T17:38:29.817Z,43.78
2022-10-13T17:41:01.379Z,41.60
2022-10-13T17:43:29.120Z,41.83
2022-10-13T17:46:17.895Z,58.08
2022-10-13T17:48:55.618Z,39.28
2022-10-13T17:51:23.281Z,47.72
2022-10-13T17:53:51.807Z,51.95
2022-10-13T17:56:21.666Z,47.28
2022-10-13T17:58:50.037Z,35.78
2022-10-13T18:01:20.043Z,35.78
2022-10-13T18:03:50.364Z,32.47
2022-10-13T18:06:19.656Z,31.62
2022-10-13T18:08:46.876Z,33.67
2022-10-13T18:11:16.711Z,33.25
2022-10-13T18:13:44.560Z,39.63
2022-10-13T18:16:16.956Z,40.03
2022-10-13T18:18:45.079Z,43.00
2022-10-13T18:21:14.076Z,41.53
2022-10-13T18:23:42.097Z,33.95
2022-10-13T18:26:12.463Z,31.05
2022-10-13T18:28:40.639Z,28.62
2022-10-13T18:31:10.528Z,30.83
2022-10-13T18:33:38.286Z,33.60
2022-10-13T18:36:16.918Z,29.83
2022-10-13T18:38:44.174Z,26.52
2022-10-13T18:41:11.181Z,29.35
2022-10-13T18:43:38.231Z,25.67
2022-10-13T18:46:05.781Z,31.15
2022-10-13T18:48:34.173Z,28.48
2022-10-13T18:51:06.099Z,32.75
2022-10-13T18:53:37.857Z,26.70
2022-10-13T18:56:10.875Z,30.50
2022-10-13T18:58:39.629Z,28.38
2022-10-13T19:01:08.875Z,31.58
2022-10-13T19:03:37.810Z,29.20
2022-10-13T19:06:06.930Z,31.98
2022-10-13T19:08:34.498Z,31.77
2022-10-13T19:11:01.775Z,29.08
2022-10-13T19:13:31.369Z,31.42
2022-10-13T19:16:02.026Z,31.70
2022-10-13T19:18:29.848Z,34.72
2022-10-13T19:20:56.928Z,31.45
2022-10-13T19:23:24.351Z,32.42
2022-10-13T19:25:54.015Z,36.22
2022-10-13T19:28:21.303Z,35.70
2022-10-13T19:30:48.629Z,28.58
2022-10-13T19:33:16.882Z,30.27
2022-10-13T19:35:53.995Z,31.92
2022-10-13T19:38:21.371Z,34.50
2022-10-13T19:40:49.678Z,32.83
2022-10-13T19:43:17.354Z,31.83
2022-10-13T19:45:57.402Z,33.33
2022-10-13T19:48:27.734Z,37.70
2022-10-13T19:50:55.021Z,31.23
2022-10-13T19:53:22.018Z,35.05
2022-10-13T19:55:49.106Z,35.10
2022-10-13T19:58:17.030Z,36.83
2022-10-13T20:00:45.091Z,29.85
2022-10-13T20:03:13.818Z,34.42
2022-10-13T20:05:46.120Z,33.75
2022-10-13T20:08:13.859Z,39.22
2022-10-13T20:10:42.462Z,31.98
2022-10-13T20:13:10.636Z,30.65
2022-10-13T20:15:43.014Z,36.90
2022-10-13T20:18:13.000Z,39.40
2022-10-13T20:20:41.513Z,31.95
2022-10-13T20:23:09.286Z,37.25
2022-10-13T20:25:38.924Z,30.77
2022-10-13T20:28:06.501Z,31.98
2022-10-13T20:30:33.609Z,28.87
2022-10-13T20:33:00.877Z,32.38
2022-10-13T20:35:28.180Z,31.33
2022-10-13T20:37:55.861Z,30.08
2022-10-13T20:40:22.994Z,30.48
2022-10-13T20:42:53.425Z,28.95
2022-10-13T20:45:20.655Z,27.20
2022-10-13T20:47:48.737Z,28.23
2022-10-13T20:50:16.111Z,28.73
2022-10-13T20:52:43.092Z,29.55
2022-10-13T20:55:10.212Z,26.37
2022-10-13T20:57:37.477Z,27.23
2022-10-13T21:00:05.988Z,27.25
2022-10-13T21:02:32.982Z,27.80
2022-10-13T21:05:00.631Z,26.05
2022-10-13T21:07:28.487Z,26.05
2022-10-13T21:09:55.615Z,25.65
2022-10-13T21:12:22.907Z,27.17
2022-10-13T21:14:49.986Z,30.08
2022-10-13T21:17:16.984Z,28.60
2022-10-13T21:19:44.296Z,27.15
2022-10-13T21:22:11.297Z,29.25
2022-10-13T21:24:38.317Z,29.60
2022-10-13T21:27:05.651Z,27.30
2022-10-13T21:29:32.656Z,27.80
2022-10-13T21:31:59.654Z,34.17
2022-10-13T21:34:26.984Z,26.20
2022-10-13T21:36:53.993Z,31.30
2022-10-13T21:39:20.994Z,30.52
2022-10-13T21:41:48.287Z,38.63
2022-10-13T21:44:15.416Z,30.40
2022-10-13T21:46:42.420Z,33.67
2022-10-13T21:49:09.714Z,26.30
2022-10-13T21:51:39.162Z,30.75
2022-10-13T21:54:09.001Z,34.33
2022-10-13T21:56:37.025Z,31.67
2022-10-13T21:59:04.785Z,31.33
2022-10-13T22:01:32.113Z,27.10
2022-10-13T22:04:01.619Z,27.27
2022-10-13T22:06:29.941Z,33.70
2022-10-13T22:08:58.422Z,37.05
2022-10-13T22:11:28.140Z,32.55
2022-10-13T22:13:58.976Z,30.52
2022-10-13T22:16:32.453Z,35.25
2022-10-13T22:19:00.062Z,30.70
2022-10-13T22:21:30.738Z,34.38
2022-10-13T22:24:02.241Z,33.40
2022-10-13T22:26:36.206Z,28.50
2022-10-13T22:29:04.763Z,39.55
2022-10-13T22:31:33.363Z,34.10
2022-10-13T22:34:05.727Z,33.80
2022-10-13T22:36:33.176Z,34.45
2022-10-13T22:39:02.800Z,29.42
2022-10-13T22:41:31.423Z,30.90
2022-10-13T22:43:59.611Z,34.00
2022-10-13T22:46:30.527Z,29.85
2022-10-13T22:48:58.399Z,32.53
2022-10-13T22:51:28.256Z,32.63
2022-10-13T22:53:55.801Z,28.60
2022-10-13T22:56:25.165Z,29.23
2022-10-13T22:59:00.846Z,32.90
2022-10-13T23:01:28.339Z,30.95
2022-10-13T23:03:56.935Z,29.08
2022-10-13T23:06:26.843Z,25.52
2022-10-13T23:08:53.954Z,30.12
2022-10-13T23:11:21.626Z,32.50
2022-10-13T23:13:49.101Z,27.83
2022-10-13T23:16:19.884Z,27.85
2022-10-13T23:18:47.684Z,27.77
2022-10-13T23:21:22.573Z,24.45
2022-10-13T23:24:02.107Z,28.05
2022-10-13T23:26:29.556Z,30.73
2022-10-13T23:28:57.611Z,27.00
2022-10-13T23:31:25.900Z,28.52
2022-10-13T23:33:53.300Z,30.40
2022-10-13T23:36:22.931Z,26.92
2022-10-13T23:38:55.102Z,25.67
2022-10-13T23:41:22.402Z,28.85
2022-10-13T23:43:49.410Z,29.25
2022-10-13T23:46:16.641Z,29.17
2022-10-13T23:48:43.920Z,30.62
2022-10-13T23:51:14.441Z,28.00
2022-10-13T23:53:42.185Z,26.70
2022-10-13T23:56:11.078Z,24.85
2022-10-13T23:58:39.925Z,31.83
